createdAt,value
2019-03-03T00:02:26.771Z,4.57
2019-03-03T00:04:55.783Z,3.70
2019-03-03T00:07:27.898Z,4.20
2019-03-03T00:09:56.865Z,3.83
2019-03-03T00:12:27.616Z,4.67
2019-03-03T00:14:59.580Z,4.23
2019-03-03T00:17:28.746Z,4.93
2019-03-03T00:19:57.660Z,4.50
2019-03-03T00:22:28.675Z,4.83
2019-03-03T00:24:59.663Z,3.90
2019-03-03T00:27:32.043Z,4.10
2019-03-03T00:30:00.944Z,4.20
2019-03-03T00:32:34.753Z,4.33
2019-03-03T00:35:03.754Z,4.17
2019-03-03T00:37:51.701Z,4.30
2019-03-03T00:40:33.205Z,4.07
2019-03-03T00:43:20.087Z,3.80
2019-03-03T00:46:12.978Z,3.83
2019-03-03T00:48:57.331Z,3.57
2019-03-03T00:52:05.481Z,3.50
2019-03-03T00:54:42.921Z,4.03
2019-03-03T00:57:18.829Z,4.00
2019-03-03T01:00:13.484Z,3.50
2019-03-03T01:02:52.137Z,3.93
2019-03-03T01:05:31.191Z,4.20
2019-03-03T01:08:11.235Z,4.07
2019-03-03T01:10:58.162Z,3.90
2019-03-03T01:13:36.266Z,3.97
2019-03-03T01:16:17.820Z,4.13
2019-03-03T01:19:01.686Z,4.00
2019-03-03T01:21:46.317Z,3.33
2019-03-03T01:24:26.397Z,3.10
2019-03-03T01:26:55.341Z,3.30
2019-03-03T01:29:25.613Z,3.67
2019-03-03T01:31:56.579Z,3.93
2019-03-03T01:34:25.609Z,3.50
2019-03-03T01:36:54.795Z,3.67
2019-03-03T01:39:25.311Z,2.93
2019-03-03T01:41:54.128Z,3.27
2019-03-03T01:44:23.038Z,4.00
2019-03-03T01:46:52.190Z,3.97
2019-03-03T01:49:22.978Z,4.13
2019-03-03T01:51:51.916Z,4.43
2019-03-03T01:54:20.852Z,3.97
2019-03-03T01:56:50.082Z,3.27
2019-03-03T01:59:19.344Z,3.03
2019-03-03T02:01:48.237Z,3.23
2019-03-03T02:04:17.509Z,3.60
2019-03-03T02:06:50.006Z,3.60
2019-03-03T02:09:19.541Z,3.53
2019-03-03T02:11:49.180Z,4.80
2019-03-03T02:14:21.065Z,4.03
2019-03-03T02:16:49.916Z,4.30
2019-03-03T02:19:19.185Z,4.83
2019-03-03T02:21:48.727Z,3.97
2019-03-03T02:24:18.119Z,4.17
2019-03-03T02:26:47.513Z,4.17
2019-03-03T02:29:17.671Z,4.37
2019-03-03T02:31:47.857Z,4.40
2019-03-03T02:34:17.041Z,5.00
2019-03-03T02:36:46.708Z,5.07
2019-03-03T02:39:17.708Z,4.47
2019-03-03T02:41:46.706Z,4.77
2019-03-03T02:44:16.467Z,6.07
2019-03-03T02:46:45.422Z,4.83
2019-03-03T02:49:14.345Z,5.33
2019-03-03T02:51:43.571Z,5.10
2019-03-03T02:54:13.029Z,3.77
2019-03-03T02:56:42.389Z,5.10
2019-03-03T02:59:11.763Z,4.77
2019-03-03T03:02:03.214Z,5.40
2019-03-03T03:04:32.844Z,5.17
2019-03-03T03:07:35.920Z,5.17
2019-03-03T03:10:11.733Z,5.73
2019-03-03T03:12:52.141Z,5.13
2019-03-03T03:15:43.199Z,5.97
2019-03-03T03:18:24.640Z,5.57
2019-03-03T03:21:10.456Z,4.63
2019-03-03T03:23:57.563Z,7.57
2019-03-03T03:26:54.618Z,4.33
2019-03-03T03:29:42.674Z,5.77
2019-03-03T03:32:28.889Z,6.20
2019-03-03T03:35:23.329Z,6.57
2019-03-03T03:38:14.312Z,5.03
2019-03-03T03:41:11.614Z,7.30
2019-03-03T03:44:00.908Z,7.20
2019-03-03T03:46:39.262Z,7.33
2019-03-03T03:49:28.506Z,7.67
2019-03-03T03:52:31.356Z,7.30
2019-03-03T03:55:12.876Z,7.00
2019-03-03T03:58:09.166Z,8.10
2019-03-03T04:00:59.911Z,6.80
2019-03-03T04:03:38.424Z,8.57
2019-03-03T04:06:36.025Z,9.13
2019-03-03T04:09:10.029Z,9.47
2019-03-03T04:12:04.274Z,7.97
2019-03-03T04:14:43.578Z,7.50
2019-03-03T04:17:31.453Z,9.77
2019-03-03T04:20:15.226Z,8.27
2019-03-03T04:22:53.664Z,11.17
2019-03-03T04:25:49.157Z,10.90
2019-03-03T04:28:27.044Z,11.20
2019-03-03T04:31:11.418Z,9.00
2019-03-03T04:34:14.412Z,11.80
2019-03-03T04:39:57.580Z,11.47
2019-03-03T04:42:48.611Z,10.57
2019-03-03T04:45:25.870Z,10.63
2019-03-03T04:48:08.443Z,10.10
2019-03-03T04:50:55.276Z,9.90
2019-03-03T04:53:47.002Z,9.40
2019-03-03T04:56:30.932Z,8.43
2019-03-03T04:59:07.028Z,9.13
2019-03-03T05:02:01.298Z,8.30
2019-03-03T05:04:36.398Z,8.63
2019-03-03T05:07:42.479Z,10.10
2019-03-03T05:10:30.658Z,9.40
2019-03-03T05:13:16.150Z,9.93
2019-03-03T05:16:19.375Z,10.13
2019-03-03T05:19:08.160Z,9.07
2019-03-03T05:21:37.518Z,10.93
2019-03-03T05:24:06.417Z,10.97
2019-03-03T05:26:35.581Z,11.90
2019-03-03T05:29:04.812Z,10.23
2019-03-03T05:31:34.006Z,12.30
2019-03-03T05:34:02.981Z,9.67
2019-03-03T05:36:32.133Z,11.73
2019-03-03T05:39:02.918Z,11.97
2019-03-03T05:41:32.349Z,10.03
2019-03-03T05:44:01.241Z,10.57
2019-03-03T05:46:30.131Z,11.27
2019-03-03T05:48:59.045Z,9.93
2019-03-03T05:51:28.530Z,9.43
2019-03-03T05:53:58.298Z,6.90
2019-03-03T05:56:27.300Z,9.23
2019-03-03T05:58:56.100Z,9.40
2019-03-03T06:01:24.993Z,8.83
2019-03-03T06:03:53.895Z,8.30
2019-03-03T06:06:23.067Z,7.03
2019-03-03T06:08:52.053Z,7.57
2019-03-03T06:11:21.079Z,8.90
2019-03-03T06:13:50.048Z,7.50
2019-03-03T06:16:23.357Z,8.27
2019-03-03T06:18:52.755Z,9.07
2019-03-03T06:21:23.979Z,7.83
2019-03-03T06:23:53.454Z,7.47
2019-03-03T06:26:22.453Z,8.20
2019-03-03T06:28:51.349Z,7.67
2019-03-03T06:31:20.535Z,7.73
2019-03-03T06:33:49.622Z,7.10
2019-03-03T06:36:19.162Z,7.67
2019-03-03T06:38:48.040Z,7.73
2019-03-03T06:41:20.959Z,6.23
2019-03-03T06:43:50.166Z,9.00
2019-03-03T06:46:19.059Z,8.53
2019-03-03T06:48:49.050Z,11.73
2019-03-03T06:51:20.317Z,11.67
2019-03-03T06:53:52.739Z,10.33
2019-03-03T06:56:25.635Z,9.70
2019-03-03T06:58:54.946Z,9.30
2019-03-03T07:01:23.883Z,9.37
2019-03-03T07:06:30.527Z,8.53
2019-03-03T07:09:00.071Z,7.70
2019-03-03T07:11:33.004Z,6.37
2019-03-03T07:14:04.313Z,7.07
2019-03-03T07:16:34.927Z,5.93
2019-03-03T07:19:04.420Z,5.67
2019-03-03T07:21:34.614Z,5.30
2019-03-03T07:24:03.740Z,4.90
2019-03-03T07:29:43.530Z,5.87
2019-03-03T07:32:12.793Z,6.30
2019-03-03T07:34:47.095Z,6.90
2019-03-03T07:37:16.806Z,6.87
2019-03-03T07:39:48.988Z,6.20
2019-03-03T07:42:21.021Z,6.70
2019-03-03T07:44:52.937Z,6.87
2019-03-03T07:47:21.920Z,7.63
2019-03-03T07:49:55.149Z,8.07
2019-03-03T07:52:26.985Z,7.87
2019-03-03T07:54:56.189Z,8.53
2019-03-03T07:57:25.564Z,8.90
2019-03-03T07:59:54.869Z,8.67
2019-03-03T08:02:24.092Z,9.07
2019-03-03T08:04:54.573Z,8.53
2019-03-03T08:07:23.599Z,9.43
2019-03-03T08:09:52.636Z,8.73
2019-03-03T08:12:21.570Z,9.80
2019-03-03T08:14:50.781Z,10.20
2019-03-03T08:17:21.767Z,9.90
2019-03-03T08:19:57.069Z,9.27
2019-03-03T08:22:26.002Z,8.40
2019-03-03T08:24:56.306Z,8.93
2019-03-03T08:27:26.294Z,8.67
2019-03-03T08:29:55.261Z,8.47
2019-03-03T08:32:24.578Z,8.70
2019-03-03T08:34:53.772Z,5.00
2019-03-03T08:37:23.214Z,5.40
2019-03-03T08:39:52.232Z,5.13
2019-03-03T08:42:46.788Z,7.30
2019-03-03T08:45:29.261Z,5.13
2019-03-03T08:48:05.932Z,4.53
2019-03-03T08:50:41.003Z,4.90
2019-03-03T08:53:22.801Z,5.03
2019-03-03T08:56:26.610Z,4.43
2019-03-03T08:59:14.688Z,4.57
2019-03-03T09:02:06.761Z,4.60
2019-03-03T09:04:43.644Z,4.07
2019-03-03T09:07:21.253Z,5.20
2019-03-03T09:10:12.651Z,5.70
2019-03-03T09:12:56.029Z,4.87
2019-03-03T09:15:46.010Z,4.50
2019-03-03T09:18:43.313Z,3.30
2019-03-03T09:21:34.560Z,3.83
2019-03-03T09:24:40.687Z,4.00
2019-03-03T09:27:28.765Z,4.50
2019-03-03T09:30:15.647Z,5.70
2019-03-03T09:33:02.895Z,5.57
2019-03-03T09:35:39.779Z,6.47
2019-03-03T09:38:18.344Z,7.17
2019-03-03T09:41:02.038Z,6.20
2019-03-03T09:43:38.384Z,6.63
2019-03-03T09:46:20.812Z,6.50
2019-03-03T09:49:14.878Z,5.30
2019-03-03T09:52:04.762Z,5.60
2019-03-03T09:54:38.736Z,5.90
2019-03-03T09:57:48.824Z,5.27
2019-03-03T10:00:27.755Z,5.47
2019-03-03T10:03:16.253Z,5.13
2019-03-03T10:06:13.653Z,4.43
2019-03-03T10:09:02.020Z,4.83
2019-03-03T10:11:37.750Z,4.00
2019-03-03T10:14:39.325Z,4.97
2019-03-03T10:17:33.320Z,4.60
2019-03-03T10:20:21.425Z,4.17
2019-03-03T10:23:10.892Z,3.70
2019-03-03T10:25:53.565Z,4.50
2019-03-03T10:28:43.437Z,5.57
2019-03-03T10:31:33.281Z,4.13
2019-03-03T10:34:23.261Z,5.27
2019-03-03T10:37:26.922Z,6.47
2019-03-03T10:40:14.710Z,6.23
2019-03-03T10:43:01.724Z,5.63
2019-03-03T10:45:51.724Z,5.93
2019-03-03T10:48:42.551Z,6.70
2019-03-03T10:51:39.617Z,6.50
2019-03-03T10:54:25.494Z,6.53
2019-03-03T10:57:06.014Z,7.17
2019-03-03T10:59:54.823Z,7.33
2019-03-03T11:02:26.958Z,7.53
2019-03-03T11:05:05.445Z,7.70
2019-03-03T11:07:58.507Z,7.07
2019-03-03T11:10:41.828Z,6.73
2019-03-03T11:13:24.436Z,6.07
2019-03-03T11:16:17.838Z,6.00
2019-03-03T11:19:15.207Z,5.83
2019-03-03T11:22:14.516Z,5.80
2019-03-03T11:25:02.443Z,6.10
2019-03-03T11:27:53.881Z,5.27
2019-03-03T11:30:57.212Z,6.60
2019-03-03T11:33:45.319Z,4.77
2019-03-03T11:36:32.594Z,5.80
2019-03-03T11:39:13.039Z,6.00
2019-03-03T11:41:59.704Z,6.07
2019-03-03T11:44:46.790Z,6.37
2019-03-03T11:47:23.715Z,6.27
2019-03-03T11:50:04.638Z,5.13
2019-03-03T11:52:46.645Z,6.57
2019-03-03T11:55:25.013Z,5.73
2019-03-03T11:58:01.640Z,6.30
2019-03-03T12:00:54.125Z,6.43
2019-03-03T12:03:36.259Z,6.60
2019-03-03T12:06:13.408Z,6.67
2019-03-03T12:09:01.381Z,6.17
2019-03-03T12:11:52.238Z,5.50
2019-03-03T12:17:56.459Z,6.20
2019-03-03T12:20:37.585Z,6.10
2019-03-03T12:23:24.359Z,5.63
2019-03-03T12:26:14.393Z,5.60
2019-03-03T12:29:17.943Z,4.97
2019-03-03T12:32:15.035Z,4.50
2019-03-03T12:35:03.095Z,4.37
2019-03-03T12:37:55.179Z,4.00
2019-03-03T12:40:44.947Z,4.27
2019-03-03T12:43:26.017Z,4.80
2019-03-03T12:46:14.285Z,4.53
2019-03-03T12:49:19.932Z,5.47
2019-03-03T12:54:58.159Z,8.60
2019-03-03T12:57:49.503Z,8.97
2019-03-03T13:00:24.304Z,7.37
2019-03-03T13:03:11.765Z,8.93
2019-03-03T13:06:02.340Z,9.60
2019-03-03T13:09:00.044Z,9.67
2019-03-03T13:11:50.770Z,10.77
2019-03-03T13:14:41.572Z,12.00
2019-03-03T13:17:35.981Z,11.33
2019-03-03T13:20:15.842Z,11.60
2019-03-03T13:23:22.088Z,12.70
2019-03-03T13:26:35.026Z,12.43
2019-03-03T13:29:09.247Z,10.27
2019-03-03T13:32:04.949Z,10.33
2019-03-03T13:35:06.202Z,8.20
2019-03-03T13:37:54.318Z,8.17
2019-03-03T13:40:31.711Z,10.10
2019-03-03T13:43:00.716Z,8.80
2019-03-03T13:45:33.645Z,8.50
2019-03-03T13:48:02.957Z,7.83
2019-03-03T13:53:07.656Z,7.37
2019-03-03T13:55:36.697Z,7.70
2019-03-03T13:58:08.215Z,7.40
2019-03-03T14:00:39.717Z,7.23
2019-03-03T14:03:08.810Z,7.00
2019-03-03T14:05:37.975Z,5.87
2019-03-03T14:08:10.487Z,5.60
2019-03-03T14:10:39.593Z,6.47
2019-03-03T14:13:08.625Z,5.50
2019-03-03T14:15:37.983Z,5.83
2019-03-03T14:18:07.088Z,5.30
2019-03-03T14:20:36.593Z,5.78
2019-03-03T14:23:05.556Z,5.73
2019-03-03T14:25:34.785Z,5.23
2019-03-03T14:28:03.791Z,4.37
2019-03-03T14:30:33.179Z,5.97
2019-03-03T14:33:02.182Z,5.10
2019-03-03T14:35:31.184Z,5.75
2019-03-03T14:38:02.160Z,6.03
2019-03-03T14:40:31.731Z,5.90
2019-03-03T14:43:00.709Z,5.73
2019-03-03T14:45:30.467Z,5.00
2019-03-03T14:47:59.462Z,6.00
2019-03-03T14:50:28.603Z,5.73
2019-03-03T14:52:57.903Z,6.10
2019-03-03T14:55:27.844Z,6.00
2019-03-03T14:57:57.117Z,5.30
2019-03-03T15:00:31.938Z,5.93
2019-03-03T15:03:02.481Z,6.93
2019-03-03T15:05:31.913Z,6.03
2019-03-03T15:08:01.798Z,5.80
2019-03-03T15:10:30.970Z,5.33
2019-03-03T15:13:00.865Z,5.47
2019-03-03T15:15:31.360Z,5.07
2019-03-03T15:18:00.396Z,5.87
2019-03-03T15:20:32.723Z,5.00
2019-03-03T15:23:02.575Z,5.30
2019-03-03T15:25:31.696Z,3.90
2019-03-03T15:28:01.077Z,4.80
2019-03-03T15:30:31.025Z,5.20
2019-03-03T15:33:02.260Z,5.50
2019-03-03T15:35:34.551Z,5.10
2019-03-03T15:38:03.980Z,5.13
2019-03-03T15:40:33.283Z,4.73
2019-03-03T15:43:02.309Z,4.77
2019-03-03T15:45:34.420Z,5.10
2019-03-03T15:48:08.260Z,4.67
2019-03-03T15:50:37.908Z,5.60
2019-03-03T15:53:08.366Z,4.77
2019-03-03T15:55:37.322Z,4.50
2019-03-03T15:58:06.158Z,4.53
2019-03-03T16:00:35.141Z,4.67
2019-03-03T16:03:04.152Z,3.83
2019-03-03T16:05:33.320Z,4.37
2019-03-03T16:08:02.683Z,5.07
2019-03-03T16:10:31.966Z,4.60
2019-03-03T16:13:03.688Z,4.63
2019-03-03T16:15:32.383Z,4.63
2019-03-03T16:18:01.459Z,4.83
2019-03-03T16:20:30.872Z,4.10
2019-03-03T16:23:00.271Z,4.97
2019-03-03T16:25:29.205Z,4.20
2019-03-03T16:27:58.329Z,3.77
2019-03-03T16:30:27.337Z,4.33
2019-03-03T16:32:57.134Z,4.10
2019-03-03T16:35:46.968Z,4.37
2019-03-03T16:38:16.198Z,4.43
2019-03-03T16:40:49.170Z,5.50
2019-03-03T16:43:20.094Z,4.70
2019-03-03T16:45:52.724Z,4.13
2019-03-03T16:48:23.402Z,4.73
2019-03-03T16:50:59.130Z,4.43
2019-03-03T16:53:32.003Z,4.33
2019-03-03T16:56:01.179Z,4.63
2019-03-03T16:58:30.361Z,4.47
2019-03-03T17:00:59.541Z,4.57
2019-03-03T17:03:32.326Z,4.57
2019-03-03T17:06:01.890Z,4.37
2019-03-03T17:08:31.104Z,5.53
2019-03-03T17:11:00.770Z,5.10
2019-03-03T17:13:30.768Z,5.30
2019-03-03T17:15:59.839Z,5.03
2019-03-03T17:18:28.839Z,5.17
2019-03-03T17:20:58.335Z,4.80
2019-03-03T17:23:28.250Z,4.97
2019-03-03T17:25:57.238Z,4.55
2019-03-03T17:28:26.297Z,5.00
2019-03-03T17:30:55.751Z,6.10
2019-03-03T17:33:25.181Z,5.13
2019-03-03T17:35:54.275Z,4.97
2019-03-03T17:38:24.440Z,5.13
2019-03-03T17:40:53.519Z,5.23
2019-03-03T17:43:24.083Z,5.03
2019-03-03T17:45:57.842Z,5.27
2019-03-03T17:48:27.252Z,5.43
2019-03-03T17:50:56.663Z,4.57
2019-03-03T17:53:25.771Z,4.90
2019-03-03T17:55:54.802Z,5.43
2019-03-03T17:58:24.581Z,4.43
2019-03-03T18:00:53.670Z,4.33
2019-03-03T18:03:22.596Z,4.30
2019-03-03T18:05:51.770Z,4.53
2019-03-03T18:08:21.753Z,4.00
2019-03-03T18:10:51.759Z,3.93
2019-03-03T18:13:22.154Z,4.07
2019-03-03T18:15:51.282Z,4.43
2019-03-03T18:18:20.235Z,4.10
2019-03-03T18:20:49.466Z,4.63
2019-03-03T18:23:20.700Z,5.17
2019-03-03T18:25:49.678Z,4.50
2019-03-03T18:28:18.702Z,4.67
2019-03-03T18:30:47.610Z,4.30
2019-03-03T18:33:17.446Z,4.47
2019-03-03T18:35:46.531Z,4.27
2019-03-03T18:38:15.539Z,4.20
2019-03-03T18:40:47.919Z,4.70
2019-03-03T18:43:17.576Z,4.50
2019-03-03T18:45:46.541Z,4.80
2019-03-03T18:48:15.988Z,4.17
2019-03-03T18:50:51.964Z,4.33
2019-03-03T18:53:21.839Z,4.50
2019-03-03T18:55:52.846Z,4.70
2019-03-03T18:58:24.969Z,4.70
2019-03-03T19:00:53.921Z,5.53
2019-03-03T19:03:23.375Z,5.13
2019-03-03T19:05:55.988Z,4.90
2019-03-03T19:08:23.700Z,5.50
2019-03-03T19:10:53.258Z,5.73
2019-03-03T19:13:22.483Z,5.53
2019-03-03T19:15:51.520Z,4.27
2019-03-03T19:18:20.574Z,5.07
2019-03-03T19:20:49.524Z,5.80
2019-03-03T19:23:18.869Z,5.60
2019-03-03T19:25:48.097Z,5.10
2019-03-03T19:28:17.852Z,5.50
2019-03-03T19:30:46.866Z,4.73
2019-03-03T19:33:32.224Z,4.60
2019-03-03T19:36:01.828Z,4.40
2019-03-03T19:38:30.781Z,4.47
2019-03-03T19:41:01.995Z,4.03
2019-03-03T19:43:31.030Z,3.80
2019-03-03T19:46:00.116Z,3.80
2019-03-03T19:48:29.885Z,4.57
2019-03-03T19:51:03.377Z,4.22
2019-03-03T19:53:35.053Z,4.53
2019-03-03T19:56:10.652Z,4.00
2019-03-03T19:58:40.773Z,4.20
2019-03-03T20:01:10.039Z,3.37
2019-03-03T20:03:39.396Z,3.80
2019-03-03T20:06:08.620Z,3.57
2019-03-03T20:11:13.108Z,3.47
2019-03-03T20:13:42.398Z,3.30
2019-03-03T20:16:12.892Z,3.40
2019-03-03T20:18:43.015Z,3.10
2019-03-03T20:21:12.092Z,3.57
2019-03-03T20:23:47.359Z,3.50
2019-03-03T20:26:17.174Z,2.80
2019-03-03T20:28:50.528Z,3.45
2019-03-03T20:31:18.688Z,2.75
2019-03-03T20:33:49.279Z,3.25
2019-03-03T20:36:18.286Z,3.17
2019-03-03T20:38:48.061Z,2.87
2019-03-03T20:41:17.279Z,2.47
2019-03-03T20:43:46.236Z,2.70
2019-03-03T20:46:15.411Z,2.87
2019-03-03T20:48:45.568Z,3.08
2019-03-03T20:51:14.635Z,3.65
2019-03-03T20:53:44.102Z,2.65
2019-03-03T20:56:13.714Z,3.10
2019-03-03T20:58:43.736Z,2.63
2019-03-03T21:01:13.306Z,2.70
2019-03-03T21:03:42.219Z,3.00
2019-03-03T21:06:12.655Z,3.02
2019-03-03T21:08:42.426Z,2.60
2019-03-03T21:11:14.414Z,2.40
2019-03-03T21:13:44.231Z,3.02
2019-03-03T21:16:13.719Z,3.05
2019-03-03T21:18:44.085Z,2.92
2019-03-03T21:21:13.958Z,2.60
2019-03-03T21:23:43.401Z,3.00
2019-03-03T21:26:13.192Z,2.77
2019-03-03T21:28:42.589Z,2.97
2019-03-03T21:31:11.558Z,2.77
2019-03-03T21:33:40.823Z,2.40
2019-03-03T21:36:10.602Z,2.70
2019-03-03T21:38:43.296Z,2.60
2019-03-03T21:41:14.345Z,2.47
2019-03-03T21:43:43.254Z,2.10
2019-03-03T21:46:13.103Z,2.22
2019-03-03T21:48:41.998Z,3.00
2019-03-03T21:51:12.128Z,2.37
2019-03-03T21:53:42.515Z,2.95
2019-03-03T21:56:11.491Z,2.80
2019-03-03T21:58:40.397Z,2.90
2019-03-03T22:01:09.929Z,2.70
2019-03-03T22:03:39.408Z,2.67
2019-03-03T22:06:10.673Z,2.98
2019-03-03T22:08:40.401Z,2.23
2019-03-03T22:11:12.939Z,2.52
2019-03-03T22:13:41.938Z,2.60
2019-03-03T22:16:12.435Z,2.57
2019-03-03T22:18:41.359Z,2.70
2019-03-03T22:21:11.671Z,2.70
2019-03-03T22:23:41.706Z,2.30
2019-03-03T22:26:10.980Z,2.50
2019-03-03T22:28:42.833Z,2.98
2019-03-03T22:31:12.594Z,3.13
2019-03-03T22:33:41.855Z,2.90
2019-03-03T22:36:10.807Z,1.92
2019-03-03T22:38:39.976Z,2.67
2019-03-03T22:41:10.239Z,2.30
2019-03-03T22:43:39.979Z,3.10
2019-03-03T22:46:11.158Z,2.70
2019-03-03T22:48:40.101Z,2.67
2019-03-03T22:51:09.087Z,2.63
2019-03-03T22:53:38.814Z,2.42
2019-03-03T22:56:10.861Z,2.30
2019-03-03T22:58:39.776Z,2.37
2019-03-03T23:01:23.829Z,2.07
2019-03-03T23:04:42.902Z,2.03
2019-03-03T23:07:36.691Z,2.43
2019-03-03T23:11:01.574Z,1.97
2019-03-03T23:13:47.692Z,2.53
2019-03-03T23:16:38.022Z,2.07
2019-03-03T23:19:39.985Z,2.30
2019-03-03T23:22:38.314Z,2.05
2019-03-03T23:25:31.311Z,2.17
2019-03-03T23:28:00.767Z,2.23
2019-03-03T23:30:30.696Z,2.03
2019-03-03T23:32:59.608Z,2.37
2019-03-03T23:35:28.566Z,2.00
2019-03-03T23:37:58.942Z,2.35
2019-03-03T23:40:30.391Z,2.27
2019-03-03T23:42:59.708Z,2.22
2019-03-03T23:45:28.658Z,2.30
2019-03-03T23:47:57.582Z,2.17
2019-03-03T23:50:26.705Z,2.52
2019-03-03T23:52:56.184Z,2.58
2019-03-03T23:55:25.209Z,2.47
2019-03-03T23:57:54.274Z,2.30
